Aérodrome :
LOGIN :

S'inscrire | Disclaimer

   EN    FR    IT 

 










Légende :    VFR   VFR Marginal   IFR   IFR Intensif   IFR Très Intensif
Visi : 
Plafond : 
>= 8 km
>= 3000ft
5 à 8 km
1000 à 3000 ft
1500m à 5 km
500 à 1000 ft
800 à 1500m
200 à 500 ft
< 800m
< 200 ft
Symboles :   Orages  Brouillard  Fortes neiges  Fortes précipitations  Vent > 20 kt
SIGMETs :   Divers  Orages  Givrage  Turbulence  Onde Orograph.  Cendres Volcan.






- Altitude de l'aérodrome : 2595 ft
- Code IATA : SLM


LESA - Salamanca Matacan

DERNIER METAR :
  • 141730Z 27009KT 240V300 9999 FEW025 FEW030TCU 09/06 Q1015

METARs EXPIRÉS :
  • 141700Z 28009KT 240V300 9999 FEW018 FEW025TCU SCT030 09/06 Q1015
  • 141630Z 29009KT 250V320 9999 FEW018 FEW025TCU SCT030 BKN046 09/07 Q1015
  • 141600Z 25013KT 9999 FEW018 SCT026 10/07 Q1014
  • 141530Z 25014KT 9999 -RA FEW018 BKN030 10/07 Q1014
  • 141500Z 23008KT 9999 FEW018 SCT030 BKN048 11/08 Q1013

TAF TAF LESA
Valide du 14 à 18h jusqu'au 15 à 18h UTC


141700Z 1418/1518 26010KT 9999 SCT025 TX15/1514Z TN05/1506Z
PROB40
TEMPO 1418/1420 4000 RA SHRA SCT030TCU
PROB40
TEMPO 1422/1509 3000 BR BKN006



MET'MAP, la Météo Aéronautique d'un coup d'oeil ! - Copyright ORBIFLY Décembre 2007 - Disclaimer

ORBIFLY MET'MAP TEAM :

Programmation & Développement : Alexandra Zaïnal
Conception & Développement : Baudouin d'Aumeries
Co-Programmation & Développement : Marc-Olivier Méhu
Soutien technique & logistique : Manuel Goepfert

Contact : metmap@orbifly.com




SOURCES & CREDITS :

   NOAA